Airport View

Enter AWOS ICAO identifier for current METAR.

ex. KFNL

KSNH 112155Z AUTO 00000KT 10SM CLR 09/M05 A3048 RMK A01

11 Dec 2019 22:06

Frequency: 133.925

Phone: 731-925-6080

Other Area AWOS: KSZY - KCRX - KPVE - KMSL

TAF KMSL 111720Z 1118/1218 VRB03KT P6SM SKC FM121400 11007KT P6SM SKC FM121600 12009G17KT P6SM SCT250